Página principal
METAR-TAF:

METAR-TAF

Aeroportos :

Chongqing, China

Aeroporto Internacional de Chongqing Jiangbei

latitude: 29-31N, longitude: 106-29E, altura: 351 m

Observação actual do tempo

O boletim foi feito há 1 hora e 9 minutos, às 11:00 UTC
Vento 6 kt de nor-nordeste
Temperatura 11°C
Humidade 62%
Pressão 1017 hPa
Visibilidade: 7000 m
Encobertoa uma altura de 5000 ft

METAR: ZUCK 121100Z 03003MPS 7000 OVC050 11/04 Q1017 NOSIG

Hora: 20:09 (12:09 UTC)

Previsão

O boletim foi feito há 2 horas e 53 minutos, às 09:16 UTC
Previsão válida de 12 às 12 UTC a 13 às 12 UTC
Vento 6 kt de es-nordeste
Visibilidade: 3500 m
Nuvens dispersasa uma altura de 4000 ft
neblina

TAF: ZUCK 120916Z 1212/1312 06003MPS 3500 BR SCT040 TX11/1307Z TN09/1222Z

Observações e previsões do tempo de mais de 4000 aeroportos (mensagens METAR e TAF).

As estações disponíveis são os pontos amarelos e vermelhos sobre o mapa.

Mova o rato sobre o mapa para ver o nome da estação.

Depois clique no ponto para visualizar as observações e previsões meteorológicas.

Para alterar o mapa : clique nos botões verdes com uma cruz preta para aumentar o zoom; no botão verde com uma pitada de zoom; ou nas setas verdes para mapas adjacentes.


METAR-TAF: